Time,TemperatureF,DewpointF,PressureIn,WindDirection,WindDirectionDegrees,WindSpeedMPH,WindSpeedGustMPH,Humidity,HourlyPrecipIn,Conditions,Clouds,dailyrainin,SoftwareType,DateUTC
2013-08-06 00:05:00,64.0,54.8,29.93,NNW,345,0.0,0.0,72,0.00,,,0.00,Wunderground v.1.15,2013-08-06 07:05:00,
2013-08-06 00:15:00,63.5,54.3,29.93,NW,325,0.0,0.0,72,0.00,,,0.00,Wunderground v.1.15,2013-08-06 07:15:00,
2013-08-06 00:25:00,63.4,54.6,29.93,NW,325,0.0,0.0,73,0.00,,,0.00,Wunderground v.1.15,2013-08-06 07:25:00,
2013-08-06 00:35:00,63.0,54.6,29.94,NNW,341,0.0,0.0,74,0.00,,,0.00,Wunderground v.1.15,2013-08-06 07:35:00,
2013-08-06 00:45:00,62.5,54.1,29.94,NW,314,0.0,0.0,74,0.00,,,0.00,Wunderground v.1.15,2013-08-06 07:45:00,
2013-08-06 00:55:00,62.2,53.8,29.94,NW,312,0.0,0.0,74,0.00,,,0.00,Wunderground v.1.15,2013-08-06 07:55:00,
2013-08-06 01:05:00,61.9,53.9,29.94,NW,312,0.0,0.0,75,0.00,,,0.00,Wunderground v.1.15,2013-08-06 08:05:00,
2013-08-06 01:10:00,61.7,54.1,29.94,NW,312,0.0,0.0,76,0.00,,,0.00,Wunderground v.1.15,2013-08-06 08:10:00,
2013-08-06 01:15:00,61.6,54.0,29.94,NW,312,0.0,0.0,76,0.00,,,0.00,Wunderground v.1.15,2013-08-06 08:15:00,
2013-08-06 01:25:00,61.4,53.8,29.94,NW,312,0.0,0.0,76,0.00,,,0.00,Wunderground v.1.15,2013-08-06 08:25:00,
2013-08-06 01:35:00,61.3,54.0,29.94,NW,310,0.0,1.0,77,0.00,,,0.00,Wunderground v.1.15,2013-08-06 08:35:00,
2013-08-06 01:45:00,61.1,53.8,29.94,NW,315,0.0,1.0,77,0.00,,,0.00,Wunderground v.1.15,2013-08-06 08:45:00,
2013-08-06 01:55:00,60.8,54.2,29.94,North,3,0.0,1.0,79,0.00,,,0.00,Wunderground v.1.15,2013-08-06 08:55:00,
2013-08-06 02:05:00,60.4,53.9,29.94,NW,322,0.0,0.0,79,0.00,,,0.00,Wunderground v.1.15,2013-08-06 09:05:00,
2013-08-06 02:10:00,60.2,53.7,29.94,North,360,0.0,0.0,79,0.00,,,0.00,Wunderground v.1.15,2013-08-06 09:10:00,
2013-08-06 02:15:00,60.0,53.8,29.94,North,10,0.0,0.0,80,0.00,,,0.00,Wunderground v.1.15,2013-08-06 09:15:00,
2013-08-06 02:25:00,59.6,53.4,29.94,North,9,0.0,0.0,80,0.00,,,0.00,Wunderground v.1.15,2013-08-06 09:25:00,
2013-08-06 02:35:00,59.1,53.3,29.94,North,9,0.0,0.0,81,0.00,,,0.00,Wunderground v.1.15,2013-08-06 09:35:00,
2013-08-06 02:45:00,58.6,53.1,29.94,North,9,0.0,0.0,82,0.00,,,0.00,Wunderground v.1.15,2013-08-06 09:45:00,
2013-08-06 02:55:00,58.4,53.3,29.94,North,10,0.0,0.0,83,0.00,,,0.00,Wunderground v.1.15,2013-08-06 09:55:00,
2013-08-06 03:05:00,58.3,53.2,29.94,North,9,0.0,0.0,83,0.00,,,0.00,Wunderground v.1.15,2013-08-06 10:05:00,
2013-08-06 03:15:00,58.2,53.1,29.94,North,10,0.0,0.0,83,0.00,,,0.00,Wunderground v.1.15,2013-08-06 10:15:00,
2013-08-06 03:25:00,58.0,52.9,29.94,North,10,0.0,0.0,83,0.00,,,0.00,Wunderground v.1.15,2013-08-06 10:25:00,
2013-08-06 03:35:00,57.7,52.9,29.94,North,10,0.0,0.0,84,0.00,,,0.00,Wunderground v.1.15,2013-08-06 10:35:00,
2013-08-06 03:40:00,57.6,53.1,29.94,North,9,0.0,0.0,85,0.00,,,0.00,Wunderground v.1.15,2013-08-06 10:40:00,
2013-08-06 03:45:00,57.6,53.1,29.94,North,9,0.0,0.0,85,0.00,,,0.00,Wunderground v.1.15,2013-08-06 10:45:00,
2013-08-06 03:55:00,57.3,53.1,29.94,North,10,0.0,0.0,86,0.00,,,0.00,Wunderground v.1.15,2013-08-06 10:55:00,
2013-08-06 04:05:00,57.1,53.0,29.94,North,9,0.0,0.0,86,0.00,,,0.00,Wunderground v.1.15,2013-08-06 11:05:00,
2013-08-06 04:15:00,56.8,52.7,29.94,North,9,0.0,0.0,86,0.00,,,0.00,Wunderground v.1.15,2013-08-06 11:15:00,
2013-08-06 04:25:00,56.6,52.5,29.94,North,9,0.0,0.0,86,0.00,,,0.00,Wunderground v.1.15,2013-08-06 11:25:00,
2013-08-06 04:35:00,56.4,52.3,29.94,North,10,0.0,0.0,86,0.00,,,0.00,Wunderground v.1.15,2013-08-06 11:35:00,
2013-08-06 04:45:00,56.3,52.5,29.94,North,9,0.0,0.0,87,0.00,,,0.00,Wunderground v.1.15,2013-08-06 11:45:00,
2013-08-06 04:55:00,56.2,52.4,29.94,North,10,0.0,0.0,87,0.00,,,0.00,Wunderground v.1.15,2013-08-06 11:55:00,
2013-08-06 05:05:00,55.9,52.4,29.95,North,10,0.0,0.0,88,0.00,,,0.00,Wunderground v.1.15,2013-08-06 12:05:00,
2013-08-06 05:15:00,55.7,52.5,29.95,North,10,0.0,0.0,89,0.00,,,0.00,Wunderground v.1.15,2013-08-06 12:15:00,
2013-08-06 05:25:00,55.5,52.3,29.95,North,10,0.0,0.0,89,0.00,,,0.00,Wunderground v.1.15,2013-08-06 12:25:00,
2013-08-06 05:35:00,55.1,51.9,29.95,North,10,0.0,0.0,89,0.00,,,0.00,Wunderground v.1.15,2013-08-06 12:35:00,
2013-08-06 05:45:00,54.9,52.0,29.95,North,10,0.0,0.0,90,0.00,,,0.00,Wunderground v.1.15,2013-08-06 12:45:00,
2013-08-06 05:55:00,54.8,51.9,29.95,NNE,13,0.0,0.0,90,0.00,,,0.00,Wunderground v.1.15,2013-08-06 12:55:00,
2013-08-06 06:05:00,54.6,52.0,29.96,NNE,12,0.0,0.0,91,0.00,,,0.00,Wunderground v.1.15,2013-08-06 13:05:00,
2013-08-06 06:10:00,54.6,52.0,29.96,North,8,0.0,0.0,91,0.00,,,0.00,Wunderground v.1.15,2013-08-06 13:10:00,
2013-08-06 06:15:00,54.5,51.9,29.96,NNW,345,0.0,0.0,91,0.00,,,0.00,Wunderground v.1.15,2013-08-06 13:15:00,
2013-08-06 06:25:00,54.7,52.1,29.96,NNE,12,0.0,0.0,91,0.00,,,0.00,Wunderground v.1.15,2013-08-06 13:25:00,
2013-08-06 06:35:00,55.3,52.4,29.96,NNE,12,0.0,0.0,90,0.00,,,0.00,Wunderground v.1.15,2013-08-06 13:35:00,
2013-08-06 06:45:00,56.1,52.9,29.97,NNE,12,0.0,0.0,89,0.00,,,0.00,Wunderground v.1.15,2013-08-06 13:45:00,
2013-08-06 06:50:00,56.7,53.5,29.97,NNE,12,0.0,0.0,89,0.00,,,0.00,Wunderground v.1.15,2013-08-06 13:50:00,
2013-08-06 06:55:00,57.7,53.9,29.97,NNW,344,0.0,0.0,87,0.00,,,0.00,Wunderground v.1.15,2013-08-06 13:55:00,
2013-08-06 07:05:00,60.7,54.8,29.97,NNW,338,0.0,0.0,81,0.00,,,0.00,Wunderground v.1.15,2013-08-06 14:05:00,
2013-08-06 07:15:00,61.6,54.7,29.97,NNW,338,0.0,0.0,78,0.00,,,0.00,Wunderground v.1.15,2013-08-06 14:15:00,
2013-08-06 07:25:00,62.7,55.0,29.97,North,1,0.0,0.0,76,0.00,,,0.00,Wunderground v.1.15,2013-08-06 14:25:00,
2013-08-06 07:30:00,63.3,55.2,29.97,North,1,0.0,0.0,75,0.00,,,0.00,Wunderground v.1.15,2013-08-06 14:30:00,
2013-08-06 07:35:00,63.5,55.4,29.97,North,355,0.0,1.0,75,0.00,,,0.00,Wunderground v.1.15,2013-08-06 14:35:00,
2013-08-06 07:45:00,64.9,55.7,29.97,North,2,0.0,1.0,72,0.00,,,0.00,Wunderground v.1.15,2013-08-06 14:45:00,
2013-08-06 07:55:00,65.6,55.9,29.97,NNE,21,0.0,1.0,71,0.00,,,0.00,Wunderground v.1.15,2013-08-06 14:55:00,
2013-08-06 08:05:00,68.0,56.2,29.97,SE,141,0.0,0.0,66,0.00,,,0.00,Wunderground v.1.15,2013-08-06 15:05:00,
2013-08-06 08:15:00,68.4,55.7,29.98,South,175,0.0,0.0,64,0.00,,,0.00,Wunderground v.1.15,2013-08-06 15:15:00,
2013-08-06 08:25:00,69.5,55.9,29.98,South,180,0.0,0.0,62,0.00,,,0.00,Wunderground v.1.15,2013-08-06 15:25:00,
2013-08-06 08:35:00,69.7,55.6,29.97,South,180,0.0,3.0,61,0.00,,,0.00,Wunderground v.1.15,2013-08-06 15:35:00,
2013-08-06 08:45:00,69.5,56.3,29.96,South,175,0.0,3.0,63,0.00,,,0.00,Wunderground v.1.15,2013-08-06 15:45:00,
2013-08-06 08:55:00,71.6,56.5,29.96,South,175,0.0,3.0,59,0.00,,,0.00,Wunderground v.1.15,2013-08-06 15:55:00,
2013-08-06 09:05:00,72.9,56.3,29.98,South,175,0.0,0.0,56,0.00,,,0.00,Wunderground v.1.15,2013-08-06 16:05:00,
2013-08-06 09:15:00,73.0,56.4,29.97,SSE,168,0.0,0.0,56,0.00,,,0.00,Wunderground v.1.15,2013-08-06 16:15:00,
2013-08-06 09:25:00,72.5,56.4,29.96,SSE,168,0.0,0.0,57,0.00,,,0.00,Wunderground v.1.15,2013-08-06 16:25:00,
2013-08-06 09:35:00,72.6,56.0,29.98,South,175,0.0,0.0,56,0.00,,,0.00,Wunderground v.1.15,2013-08-06 16:35:00,
2013-08-06 09:45:00,72.6,56.0,29.98,South,175,0.0,0.0,56,0.00,,,0.00,Wunderground v.1.15,2013-08-06 16:45:00,
2013-08-06 09:55:00,72.7,55.6,29.98,SSE,148,0.0,0.0,55,0.00,,,0.00,Wunderground v.1.15,2013-08-06 16:55:00,
2013-08-06 10:05:00,73.5,56.3,29.98,NW,316,0.0,0.0,55,0.00,,,0.00,Wunderground v.1.15,2013-08-06 17:05:00,
2013-08-06 10:15:00,75.6,56.7,29.98,NW,310,0.0,0.0,52,0.00,,,0.00,Wunderground v.1.15,2013-08-06 17:15:00,
2013-08-06 10:25:00,76.5,57.0,29.98,SE,145,0.0,2.0,51,0.00,,,0.00,Wunderground v.1.15,2013-08-06 17:25:00,
2013-08-06 10:30:00,77.1,57.0,29.98,NW,307,0.0,0.0,50,0.00,,,0.00,Wunderground v.1.15,2013-08-06 17:30:00,
2013-08-06 10:35:00,77.8,57.1,29.98,NW,316,0.0,0.0,49,0.00,,,0.00,Wunderground v.1.15,2013-08-06 17:35:00,
2013-08-06 10:45:00,78.3,57.0,29.98,East,95,0.0,0.0,48,0.00,,,0.00,Wunderground v.1.15,2013-08-06 17:45:00,
2013-08-06 10:55:00,79.4,57.4,29.97,SSW,201,0.0,0.0,47,0.00,,,0.00,Wunderground v.1.15,2013-08-06 17:55:00,
2013-08-06 11:05:00,79.2,57.2,29.97,WNW,297,0.0,0.0,47,0.00,,,0.00,Wunderground v.1.15,2013-08-06 18:05:00,
2013-08-06 11:15:00,78.5,57.2,29.97,NNW,330,0.0,0.0,48,0.00,,,0.00,Wunderground v.1.15,2013-08-06 18:15:00,
2013-08-06 11:25:00,77.8,57.1,29.97,SE,133,0.0,0.0,49,0.00,,,0.00,Wunderground v.1.15,2013-08-06 18:25:00,
2013-08-06 11:35:00,77.5,56.8,29.97,NW,315,0.0,1.0,49,0.00,,,0.00,Wunderground v.1.15,2013-08-06 18:35:00,
2013-08-06 11:40:00,77.0,56.9,29.97,SSE,168,0.0,3.0,50,0.00,,,0.00,Wunderground v.1.15,2013-08-06 18:40:00,
2013-08-06 11:45:00,76.4,57.5,29.97,NNW,334,0.0,3.0,52,0.00,,,0.00,Wunderground v.1.15,2013-08-06 18:45:00,
2013-08-06 11:55:00,76.8,57.8,29.97,South,185,0.0,3.0,52,0.00,,,0.00,Wunderground v.1.15,2013-08-06 18:55:00,
2013-08-06 12:05:00,77.1,58.1,29.97,NW,316,0.0,0.0,52,0.00,,,0.00,Wunderground v.1.15,2013-08-06 19:05:00,
2013-08-06 12:15:00,78.3,58.7,29.97,North,4,0.0,0.0,51,0.00,,,0.00,Wunderground v.1.15,2013-08-06 19:15:00,
2013-08-06 12:25:00,79.5,58.7,29.96,SSE,151,0.0,1.0,49,0.00,,,0.00,Wunderground v.1.15,2013-08-06 19:25:00,
2013-08-06 12:35:00,80.1,59.2,29.96,SW,220,0.0,1.0,49,0.00,,,0.00,Wunderground v.1.15,2013-08-06 19:35:00,
2013-08-06 12:45:00,79.8,58.9,29.96,South,185,0.0,4.0,49,0.00,,,0.00,Wunderground v.1.15,2013-08-06 19:45:00,
2013-08-06 12:55:00,80.1,59.2,29.96,SSE,155,0.0,4.0,49,0.00,,,0.00,Wunderground v.1.15,2013-08-06 19:55:00,
2013-08-06 13:00:00,80.2,59.3,29.96,SSE,157,0.0,0.0,49,0.00,,,0.00,Wunderground v.1.15,2013-08-06 20:00:00,
2013-08-06 13:10:00,80.1,59.2,29.96,SSE,168,0.0,0.0,49,0.00,,,0.00,Wunderground v.1.15,2013-08-06 20:10:00,
2013-08-06 13:15:00,80.3,59.4,29.96,SSE,160,0.0,0.0,49,0.00,,,0.00,Wunderground v.1.15,2013-08-06 20:15:00,
2013-08-06 13:25:00,80.7,59.2,29.96,SE,142,0.0,0.0,48,0.00,,,0.00,Wunderground v.1.15,2013-08-06 20:25:00,
2013-08-06 13:35:00,79.4,58.0,29.95,SSE,147,1.0,2.0,48,0.00,,,0.00,Wunderground v.1.15,2013-08-06 20:35:00,
2013-08-06 13:40:00,78.3,58.1,29.95,SSE,162,1.0,1.0,50,0.00,,,0.00,Wunderground v.1.15,2013-08-06 20:40:00,
2013-08-06 13:45:00,78.2,58.6,29.95,SSE,168,0.0,3.0,51,0.00,,,0.00,Wunderground v.1.15,2013-08-06 20:45:00,
2013-08-06 13:50:00,78.7,59.0,29.95,South,180,0.0,3.0,51,0.00,,,0.00,Wunderground v.1.15,2013-08-06 20:50:00,
2013-08-06 13:55:00,78.7,58.5,29.95,South,175,0.0,3.0,50,0.00,,,0.00,Wunderground v.1.15,2013-08-06 20:55:00,
2013-08-06 14:05:00,78.6,57.8,29.95,SSE,156,0.0,1.0,49,0.00,,,0.00,Wunderground v.1.15,2013-08-06 21:05:00,
2013-08-06 14:15:00,78.4,58.8,29.95,SSE,154,0.0,1.0,51,0.00,,,0.00,Wunderground v.1.15,2013-08-06 21:15:00,
2013-08-06 14:25:00,79.3,59.0,29.95,SE,139,0.0,1.0,50,0.00,,,0.00,Wunderground v.1.15,2013-08-06 21:25:00,
2013-08-06 14:35:00,79.4,58.6,29.94,SE,124,0.0,3.0,49,0.00,,,0.00,Wunderground v.1.15,2013-08-06 21:35:00,
2013-08-06 14:45:00,79.1,57.7,29.94,SSE,151,0.0,3.0,48,0.00,,,0.00,Wunderground v.1.15,2013-08-06 21:45:00,
2013-08-06 14:55:00,79.5,57.5,29.94,SSE,160,0.0,3.0,47,0.00,,,0.00,Wunderground v.1.15,2013-08-06 21:55:00,
2013-08-06 15:05:00,81.1,58.4,29.93,SSE,153,0.0,1.0,46,0.00,,,0.00,Wunderground v.1.15,2013-08-06 22:05:00,
2013-08-06 15:15:00,83.0,57.5,29.93,South,175,0.0,0.0,42,0.00,,,0.00,Wunderground v.1.15,2013-08-06 22:15:00,
2013-08-06 15:20:00,83.4,53.6,29.93,East,89,0.0,0.0,36,0.00,,,0.00,Wunderground v.1.15,2013-08-06 22:20:00,
2013-08-06 15:25:00,84.7,55.5,29.93,SE,132,0.0,0.0,37,0.00,,,0.00,Wunderground v.1.15,2013-08-06 22:25:00,
2013-08-06 15:35:00,84.8,57.1,29.93,SSE,159,0.0,2.0,39,0.00,,,0.00,Wunderground v.1.15,2013-08-06 22:35:00,
2013-08-06 15:45:00,83.9,54.8,29.92,South,185,0.0,2.0,37,0.00,,,0.00,Wunderground v.1.15,2013-08-06 22:45:00,
2013-08-06 15:55:00,86.3,55.4,29.92,NNE,27,1.0,2.0,35,0.00,,,0.00,Wunderground v.1.15,2013-08-06 22:55:00,
2013-08-06 16:05:00,89.7,54.1,29.92,NE,40,0.0,1.0,30,0.00,,,0.00,Wunderground v.1.15,2013-08-06 23:05:00,
2013-08-06 16:15:00,88.7,55.9,29.92,NNE,12,0.0,0.0,33,0.00,,,0.00,Wunderground v.1.15,2013-08-06 23:15:00,
2013-08-06 16:25:00,92.2,56.3,29.92,NE,41,0.0,0.0,30,0.00,,,0.00,Wunderground v.1.15,2013-08-06 23:25:00,
2013-08-06 16:35:00,92.4,55.5,29.91,NNE,31,0.0,1.0,29,0.00,,,0.00,Wunderground v.1.15,2013-08-06 23:35:00,
2013-08-06 16:45:00,92.4,56.5,29.91,NNW,345,1.0,1.0,30,0.00,,,0.00,Wunderground v.1.15,2013-08-06 23:45:00,
2013-08-06 16:50:00,91.5,56.6,29.91,NNW,347,1.0,1.0,31,0.00,,,0.00,Wunderground v.1.15,2013-08-06 23:50:00,
2013-08-06 16:55:00,89.5,56.6,29.91,NNW,347,2.0,2.0,33,0.00,,,0.00,Wunderground v.1.15,2013-08-06 23:55:00,
2013-08-06 17:05:00,88.0,56.1,29.91,NNE,27,2.0,4.0,34,0.00,,,0.00,Wunderground v.1.15,2013-08-07 00:05:00,
2013-08-06 17:15:00,88.0,55.3,29.91,NNW,348,1.0,1.0,33,0.00,,,0.00,Wunderground v.1.15,2013-08-07 00:15:00,
2013-08-06 17:25:00,88.3,55.6,29.90,WNW,294,0.0,3.0,33,0.00,,,0.00,Wunderground v.1.15,2013-08-07 00:25:00,
2013-08-06 17:35:00,86.7,55.8,29.90,WNW,291,1.0,4.0,35,0.00,,,0.00,Wunderground v.1.15,2013-08-07 00:35:00,
2013-08-06 17:45:00,84.1,55.0,29.90,NNW,339,1.0,3.0,37,0.00,,,0.00,Wunderground v.1.15,2013-08-07 00:45:00,
2013-08-06 17:55:00,82.5,55.7,29.90,NNW,330,1.0,4.0,40,0.00,,,0.00,Wunderground v.1.15,2013-08-07 00:55:00,
2013-08-06 18:05:00,81.8,56.5,29.90,North,356,0.0,1.0,42,0.00,,,0.00,Wunderground v.1.15,2013-08-07 01:05:00,
2013-08-06 18:15:00,81.0,57.0,29.90,NW,324,0.0,0.0,44,0.00,,,0.00,Wunderground v.1.15,2013-08-07 01:15:00,
2013-08-06 18:25:00,80.3,56.4,29.89,NW,321,0.0,1.0,44,0.00,,,0.00,Wunderground v.1.15,2013-08-07 01:25:00,
2013-08-06 18:35:00,79.5,56.3,29.89,NNW,328,0.0,8.0,45,0.00,,,0.00,Wunderground v.1.15,2013-08-07 01:35:00,
2013-08-06 18:45:00,78.8,54.4,29.89,NW,318,1.0,8.0,43,0.00,,,0.00,Wunderground v.1.15,2013-08-07 01:45:00,
2013-08-06 18:55:00,78.1,53.8,29.89,NW,323,1.0,2.0,43,0.00,,,0.00,Wunderground v.1.15,2013-08-07 01:55:00,
2013-08-06 19:05:00,77.3,53.1,29.89,WNW,291,2.0,8.0,43,0.00,,,0.00,Wunderground v.1.15,2013-08-07 02:05:00,
2013-08-06 19:10:00,76.9,52.7,29.89,NW,309,2.0,4.0,43,0.00,,,0.00,Wunderground v.1.15,2013-08-07 02:10:00,
2013-08-06 19:15:00,76.5,52.3,29.89,NNE,14,3.0,4.0,43,0.00,,,0.00,Wunderground v.1.15,2013-08-07 02:15:00,
2013-08-06 19:25:00,75.8,53.5,29.89,NNW,337,2.0,2.0,46,0.00,,,0.00,Wunderground v.1.15,2013-08-07 02:25:00,
2013-08-06 19:35:00,75.0,53.4,29.88,WNW,303,2.0,5.0,47,0.00,,,0.00,Wunderground v.1.15,2013-08-07 02:35:00,
2013-08-06 19:45:00,74.3,53.9,29.89,North,8,2.0,5.0,49,0.00,,,0.00,Wunderground v.1.15,2013-08-07 02:45:00,
2013-08-06 19:55:00,73.4,54.2,29.89,North,4,1.0,5.0,51,0.00,,,0.00,Wunderground v.1.15,2013-08-07 02:55:00,
2013-08-06 20:00:00,73.0,53.8,29.89,North,6,1.0,1.0,51,0.00,,,0.00,Wunderground v.1.15,2013-08-07 03:00:00,
2013-08-06 20:10:00,72.2,54.1,29.89,North,6,0.0,0.0,53,0.00,,,0.00,Wunderground v.1.15,2013-08-07 03:10:00,
2013-08-06 20:15:00,71.8,54.3,29.89,NE,35,0.0,1.0,54,0.00,,,0.00,Wunderground v.1.15,2013-08-07 03:15:00,
2013-08-06 20:25:00,71.0,54.0,29.89,North,355,0.0,0.0,55,0.00,,,0.00,Wunderground v.1.15,2013-08-07 03:25:00,
2013-08-06 20:35:00,70.3,53.9,29.89,NNE,13,0.0,1.0,56,0.00,,,0.00,Wunderground v.1.15,2013-08-07 03:35:00,
2013-08-06 20:40:00,69.9,54.0,29.90,NNE,16,0.0,10.0,57,0.00,,,0.00,Wunderground v.1.15,2013-08-07 03:40:00,
2013-08-06 20:45:00,69.6,53.7,29.90,North,359,0.0,10.0,57,0.00,,,0.00,Wunderground v.1.15,2013-08-07 03:45:00,
2013-08-06 20:55:00,68.9,53.5,29.90,NNW,347,0.0,10.0,58,0.00,,,0.00,Wunderground v.1.15,2013-08-07 03:55:00,
2013-08-06 21:00:00,68.6,53.2,29.90,NNE,21,0.0,0.0,58,0.00,,,0.00,Wunderground v.1.15,2013-08-07 04:00:00,
2013-08-06 21:05:00,68.4,53.5,29.90,NNE,16,0.0,1.0,59,0.00,,,0.00,Wunderground v.1.15,2013-08-07 04:05:00,
2013-08-06 21:10:00,68.1,53.2,29.90,NNE,22,0.0,0.0,59,0.00,,,0.00,Wunderground v.1.15,2013-08-07 04:10:00,
2013-08-06 21:15:00,67.9,53.0,29.90,NNE,18,0.0,0.0,59,0.00,,,0.00,Wunderground v.1.15,2013-08-07 04:15:00,
2013-08-06 21:25:00,67.5,53.1,29.90,NNE,20,0.0,1.0,60,0.00,,,0.00,Wunderground v.1.15,2013-08-07 04:25:00,
2013-08-06 21:35:00,67.1,52.7,29.91,NNE,20,0.0,4.0,60,0.00,,,0.00,Wunderground v.1.15,2013-08-07 04:35:00,
2013-08-06 21:45:00,66.8,52.5,29.91,NNE,19,0.0,4.0,60,0.00,,,0.00,Wunderground v.1.15,2013-08-07 04:45:00,
2013-08-06 21:55:00,66.7,52.4,29.91,NNE,12,0.0,4.0,60,0.00,,,0.00,Wunderground v.1.15,2013-08-07 04:55:00,
2013-08-06 22:05:00,66.7,52.4,29.91,NNE,22,0.0,0.0,60,0.00,,,0.00,Wunderground v.1.15,2013-08-07 05:05:00,
2013-08-06 22:15:00,66.7,53.3,29.91,North,8,0.0,0.0,62,0.00,,,0.00,Wunderground v.1.15,2013-08-07 05:15:00,
2013-08-06 22:25:00,66.5,53.5,29.91,NNE,24,0.0,0.0,63,0.00,,,0.00,Wunderground v.1.15,2013-08-07 05:25:00,
2013-08-06 22:35:00,66.2,53.2,29.91,NNE,12,0.0,5.0,63,0.00,,,0.00,Wunderground v.1.15,2013-08-07 05:35:00,
2013-08-06 22:45:00,66.0,53.5,29.92,NNE,13,0.0,5.0,64,0.00,,,0.00,Wunderground v.1.15,2013-08-07 05:45:00,
2013-08-06 22:55:00,65.9,53.4,29.91,NNE,13,0.0,5.0,64,0.00,,,0.00,Wunderground v.1.15,2013-08-07 05:55:00,
2013-08-06 23:05:00,65.7,54.4,29.92,NNE,13,0.0,0.0,67,0.00,,,0.00,Wunderground v.1.15,2013-08-07 06:05:00,
2013-08-06 23:10:00,65.6,54.3,29.92,NNE,13,0.0,0.0,67,0.00,,,0.00,Wunderground v.1.15,2013-08-07 06:10:00,
2013-08-06 23:15:00,65.3,54.1,29.92,NNE,13,0.0,0.0,67,0.00,,,0.00,Wunderground v.1.15,2013-08-07 06:15:00,
2013-08-06 23:25:00,65.0,53.8,29.92,NNE,13,0.0,0.0,67,0.00,,,0.00,Wunderground v.1.15,2013-08-07 06:25:00,
2013-08-06 23:35:00,64.8,53.6,29.92,NNE,13,0.0,2.0,67,0.00,,,0.00,Wunderground v.1.15,2013-08-07 06:35:00,
2013-08-06 23:45:00,64.7,53.5,29.92,NW,314,0.0,2.0,67,0.00,,,0.00,Wunderground v.1.15,2013-08-07 06:45:00,
2013-08-06 23:55:00,64.6,54.2,29.92,NW,314,0.0,2.0,69,0.00,,,0.00,Wunderground v.1.15,2013-08-07 06:55:00,